createdAt,value
2022-10-08T00:02:03.271Z,14.52
2022-10-08T00:04:31.669Z,13.95
2022-10-08T00:06:59.909Z,10.85
2022-10-08T00:09:27.945Z,13.82
2022-10-08T00:11:57.977Z,12.75
2022-10-08T00:14:26.167Z,11.00
2022-10-08T00:16:55.657Z,15.70
2022-10-08T00:19:24.298Z,10.25
2022-10-08T00:21:56.950Z,13.10
2022-10-08T00:24:25.565Z,10.27
2022-10-08T00:26:53.818Z,12.30
2022-10-08T00:29:22.991Z,11.48
2022-10-08T00:31:51.896Z,14.98
2022-10-08T00:34:23.549Z,14.98
2022-10-08T00:36:53.759Z,10.20
2022-10-08T00:39:23.888Z,12.75
2022-10-08T00:41:54.539Z,11.70
2022-10-08T00:44:58.964Z,11.48
2022-10-08T00:47:36.512Z,14.35
2022-10-08T00:50:10.944Z,11.73
2022-10-08T00:52:43.681Z,16.65
2022-10-08T00:55:13.903Z,18.50
2022-10-08T00:57:43.478Z,15.63
2022-10-08T01:00:15.187Z,13.18
2022-10-08T01:02:43.919Z,15.27
2022-10-08T01:05:17.744Z,14.55
2022-10-08T01:07:52.280Z,17.65
2022-10-08T01:10:29.313Z,11.52
2022-10-08T01:13:12.339Z,18.88
2022-10-08T01:15:45.996Z,18.05
2022-10-08T01:21:01.692Z,16.23
2022-10-08T01:23:55.769Z,10.70
2022-10-08T01:26:50.334Z,14.82
2022-10-08T01:29:23.086Z,11.35
2022-10-08T01:31:55.508Z,11.57
2022-10-08T01:34:28.443Z,13.93
2022-10-08T01:36:59.350Z,9.97
2022-10-08T01:39:32.320Z,11.88
2022-10-08T01:42:03.267Z,10.45
2022-10-08T01:44:35.875Z,11.43
2022-10-08T01:47:08.482Z,10.18
2022-10-08T01:49:43.417Z,12.52
2022-10-08T01:52:15.241Z,11.65
2022-10-08T01:54:46.201Z,11.68
2022-10-08T01:57:15.013Z,8.88
2022-10-08T01:59:48.681Z,10.85
2022-10-08T02:04:46.700Z,10.93
2022-10-08T02:07:18.925Z,10.85
2022-10-08T02:09:52.363Z,9.50
2022-10-08T02:12:23.167Z,7.95
2022-10-08T02:14:55.776Z,11.05
2022-10-08T02:17:35.890Z,9.68
2022-10-08T02:20:08.601Z,10.40
2022-10-08T02:22:41.644Z,12.15
2022-10-08T02:25:16.210Z,12.10
2022-10-08T02:27:53.840Z,11.07
2022-10-08T02:30:24.906Z,12.93
2022-10-08T02:33:02.973Z,13.30
2022-10-08T02:35:38.780Z,11.77
2022-10-08T02:38:11.521Z,13.00
2022-10-08T02:40:43.637Z,11.55
2022-10-08T02:43:22.739Z,11.15
2022-10-08T02:45:58.155Z,10.95
2022-10-08T02:48:32.172Z,11.98
2022-10-08T02:51:04.416Z,14.32
2022-10-08T02:53:34.012Z,12.85
2022-10-08T02:56:10.773Z,10.88
2022-10-08T02:58:39.226Z,12.25
2022-10-08T03:01:14.882Z,11.20
2022-10-08T03:03:49.066Z,11.57
2022-10-08T03:06:18.576Z,11.68
2022-10-08T03:08:50.268Z,11.20
2022-10-08T03:11:18.570Z,11.73
2022-10-08T03:13:49.514Z,14.18
2022-10-08T03:16:23.368Z,14.02
2022-10-08T03:18:53.682Z,12.85
2022-10-08T03:21:21.822Z,10.15
2022-10-08T03:23:50.070Z,11.77
2022-10-08T03:26:19.026Z,15.13
2022-10-08T03:28:47.300Z,13.15
2022-10-08T03:31:16.061Z,13.23
2022-10-08T03:33:45.658Z,18.00
2022-10-08T03:36:13.717Z,10.68
2022-10-08T03:38:42.323Z,15.90
2022-10-08T03:41:10.416Z,12.52
2022-10-08T03:43:38.635Z,13.68
2022-10-08T03:46:07.631Z,16.00
2022-10-08T03:48:35.978Z,17.00
2022-10-08T03:51:07.869Z,12.70
2022-10-08T03:53:38.740Z,12.85
2022-10-08T03:56:09.277Z,15.73
2022-10-08T03:58:37.716Z,12.60
2022-10-08T04:01:08.731Z,14.25
2022-10-08T04:03:37.855Z,11.35
2022-10-08T04:06:08.330Z,14.70
2022-10-08T04:08:37.486Z,12.68
2022-10-08T04:11:05.974Z,10.23
2022-10-08T04:13:34.976Z,12.40
2022-10-08T04:16:04.168Z,14.52
2022-10-08T04:18:32.382Z,12.93
2022-10-08T04:21:01.320Z,12.88
2022-10-08T04:23:33.625Z,16.25
2022-10-08T04:26:02.437Z,17.52
2022-10-08T04:28:34.953Z,17.73
2022-10-08T04:31:07.857Z,14.00
2022-10-08T04:33:36.978Z,18.25
2022-10-08T04:36:09.516Z,13.80
2022-10-08T04:38:39.093Z,19.85
2022-10-08T04:41:08.880Z,16.17
2022-10-08T04:43:38.368Z,14.55
2022-10-08T04:46:08.764Z,17.88
2022-10-08T04:48:37.140Z,26.42
2022-10-08T04:51:10.528Z,16.73
2022-10-08T04:53:40.725Z,15.82
2022-10-08T04:56:11.501Z,14.55
2022-10-08T04:58:40.118Z,16.23
2022-10-08T05:01:09.842Z,17.52
2022-10-08T05:03:38.998Z,16.58
2022-10-08T05:06:08.258Z,14.95
2022-10-08T05:08:36.948Z,18.17
2022-10-08T05:11:07.745Z,19.77
2022-10-08T05:13:36.086Z,15.57
2022-10-08T05:16:05.786Z,19.50
2022-10-08T05:18:34.514Z,24.95
2022-10-08T05:21:07.050Z,17.42
2022-10-08T05:23:36.371Z,19.58
2022-10-08T05:26:14.417Z,17.23
2022-10-08T05:28:43.273Z,15.75
2022-10-08T05:31:11.607Z,14.57
2022-10-08T05:33:39.883Z,20.50
2022-10-08T05:36:09.949Z,15.48
2022-10-08T05:38:38.200Z,15.85
2022-10-08T05:41:10.952Z,27.98
2022-10-08T05:43:40.832Z,18.17
2022-10-08T05:46:09.124Z,19.88
2022-10-08T05:48:38.443Z,16.08
2022-10-08T05:51:07.783Z,18.92
2022-10-08T05:53:36.987Z,18.42
2022-10-08T05:56:08.211Z,20.25
2022-10-08T05:58:37.888Z,17.05
2022-10-08T06:01:12.338Z,21.25
2022-10-08T06:03:40.684Z,16.67
2022-10-08T06:06:10.790Z,23.23
2022-10-08T06:08:39.670Z,18.52
2022-10-08T06:11:07.892Z,17.83
2022-10-08T06:13:36.507Z,13.20
2022-10-08T06:16:06.858Z,17.90
2022-10-08T06:18:38.529Z,17.50
2022-10-08T06:21:08.717Z,18.42
2022-10-08T06:23:37.645Z,16.95
2022-10-08T06:26:07.116Z,17.35
2022-10-08T06:28:37.463Z,18.05
2022-10-08T06:31:06.374Z,14.15
2022-10-08T06:33:36.236Z,13.65
2022-10-08T06:36:05.907Z,19.25
2022-10-08T06:38:34.871Z,15.00
2022-10-08T06:41:03.093Z,18.75
2022-10-08T06:43:31.748Z,15.63
2022-10-08T06:46:01.021Z,15.95
2022-10-08T06:48:29.179Z,13.15
2022-10-08T06:51:03.010Z,16.95
2022-10-08T06:53:31.403Z,19.60
2022-10-08T06:56:00.663Z,15.68
2022-10-08T06:58:29.679Z,13.65
2022-10-08T07:01:05.625Z,13.50
2022-10-08T07:03:34.336Z,17.13
2022-10-08T07:06:04.802Z,18.73
2022-10-08T07:08:33.381Z,15.18
2022-10-08T07:11:06.738Z,16.63
2022-10-08T07:13:35.606Z,14.15
2022-10-08T07:16:05.465Z,17.48
2022-10-08T07:18:34.741Z,17.00
2022-10-08T07:21:05.180Z,14.05
2022-10-08T07:23:33.572Z,12.48
2022-10-08T07:26:03.368Z,12.85
2022-10-08T07:28:34.302Z,14.13
2022-10-08T07:31:06.094Z,14.18
2022-10-08T07:33:34.689Z,12.85
2022-10-08T07:36:14.774Z,10.93
2022-10-08T07:38:43.569Z,12.05
2022-10-08T07:41:15.730Z,11.82
2022-10-08T07:43:44.117Z,11.13
2022-10-08T07:46:14.370Z,12.90
2022-10-08T07:48:42.988Z,11.23
2022-10-08T07:51:14.444Z,9.50
2022-10-08T07:53:43.523Z,12.40
2022-10-08T07:56:14.874Z,9.80
2022-10-08T07:58:43.593Z,12.30
2022-10-08T08:01:14.338Z,12.00
2022-10-08T08:03:42.853Z,10.30
2022-10-08T08:06:14.832Z,9.90
2022-10-08T08:08:45.121Z,10.02
2022-10-08T08:11:15.500Z,9.52
2022-10-08T08:13:44.282Z,9.05
2022-10-08T08:16:15.006Z,9.80
2022-10-08T08:18:45.354Z,7.03
2022-10-08T08:21:19.795Z,9.50
2022-10-08T08:23:49.879Z,7.80
2022-10-08T08:26:20.868Z,7.97
2022-10-08T08:28:52.218Z,9.60
2022-10-08T08:31:22.570Z,8.98
2022-10-08T08:33:52.718Z,8.70
2022-10-08T08:36:26.703Z,9.48
2022-10-08T08:38:55.273Z,8.23
2022-10-08T08:41:47.014Z,8.75
2022-10-08T08:44:20.895Z,11.77
2022-10-08T08:46:56.473Z,8.85
2022-10-08T08:49:29.654Z,8.02
2022-10-08T08:52:00.794Z,9.85
2022-10-08T08:54:30.552Z,8.45
2022-10-08T08:57:10.787Z,7.80
2022-10-08T08:59:43.244Z,5.70
2022-10-08T09:02:20.976Z,10.88
2022-10-08T09:04:54.437Z,6.95
2022-10-08T09:09:55.902Z,9.63
2022-10-08T09:12:28.567Z,10.65
2022-10-08T09:15:00.227Z,7.63
2022-10-08T09:17:32.543Z,9.57
2022-10-08T09:20:01.718Z,7.28
2022-10-08T09:22:36.268Z,9.15
2022-10-08T09:25:07.801Z,7.43
2022-10-08T09:27:50.327Z,10.05
2022-10-08T09:30:39.026Z,7.05
2022-10-08T09:33:22.835Z,8.27
2022-10-08T09:35:52.659Z,9.43
2022-10-08T09:38:25.005Z,8.02
2022-10-08T09:41:18.605Z,8.85
2022-10-08T09:44:05.762Z,10.88
2022-10-08T09:46:35.317Z,7.25
2022-10-08T09:49:22.555Z,9.30
2022-10-08T09:51:55.066Z,9.07
2022-10-08T09:54:27.207Z,9.85
2022-10-08T09:56:59.026Z,7.78
2022-10-08T09:59:29.895Z,7.85
2022-10-08T10:01:58.880Z,9.35
2022-10-08T10:04:35.179Z,6.95
2022-10-08T10:07:04.079Z,8.73
2022-10-08T10:09:42.169Z,7.22
2022-10-08T10:12:20.428Z,7.25
2022-10-08T10:14:52.961Z,7.60
2022-10-08T10:17:26.681Z,8.07
2022-10-08T10:19:59.436Z,5.30
2022-10-08T10:22:31.766Z,5.07
2022-10-08T10:25:07.118Z,5.65
2022-10-08T10:27:39.660Z,7.45
2022-10-08T10:30:17.050Z,6.97
2022-10-08T10:32:49.966Z,4.45
2022-10-08T10:35:24.297Z,10.00
2022-10-08T10:37:57.721Z,6.45
2022-10-08T10:43:29.176Z,11.88
2022-10-08T10:46:02.884Z,6.30
2022-10-08T10:48:31.111Z,6.90
2022-10-08T10:51:11.255Z,6.20
2022-10-08T10:53:50.539Z,5.88
2022-10-08T10:56:22.753Z,9.23
2022-10-08T10:59:16.745Z,7.57
2022-10-08T11:04:24.451Z,7.82
2022-10-08T11:07:03.888Z,5.50
2022-10-08T11:09:41.917Z,7.03
2022-10-08T11:12:29.671Z,6.30
2022-10-08T11:15:06.781Z,8.10
2022-10-08T11:17:54.346Z,7.30
2022-10-08T11:20:40.232Z,5.20
2022-10-08T11:23:19.852Z,4.60
2022-10-08T11:26:20.418Z,7.50
2022-10-08T11:28:51.909Z,6.40
2022-10-08T11:31:34.446Z,7.07
2022-10-08T11:34:04.841Z,9.07
2022-10-08T11:36:40.826Z,5.75
2022-10-08T11:39:17.417Z,6.97
2022-10-08T11:41:54.286Z,6.63
2022-10-08T11:44:24.149Z,8.32
2022-10-08T11:46:52.562Z,6.57
2022-10-08T11:49:51.611Z,5.30
2022-10-08T11:52:19.900Z,9.80
2022-10-08T11:54:55.891Z,6.35
2022-10-08T12:00:42.733Z,8.40
2022-10-08T12:03:24.734Z,6.25
2022-10-08T12:05:55.138Z,6.63
2022-10-08T12:08:56.404Z,4.95
2022-10-08T12:11:54.845Z,7.80
2022-10-08T12:14:32.840Z,7.78
2022-10-08T12:17:12.772Z,5.68
2022-10-08T12:20:09.323Z,5.75
2022-10-08T12:22:45.317Z,5.78
2022-10-08T12:25:42.603Z,4.82
2022-10-08T12:28:53.322Z,6.75
2022-10-08T12:31:35.586Z,7.40
2022-10-08T12:34:15.643Z,6.00
2022-10-08T12:36:59.308Z,6.70
2022-10-08T12:42:13.967Z,8.40
2022-10-08T12:44:54.480Z,8.57
2022-10-08T12:47:35.073Z,6.88
2022-10-08T12:50:19.226Z,7.65
2022-10-08T12:52:48.293Z,8.40
2022-10-08T12:55:18.961Z,8.32
2022-10-08T12:57:50.411Z,12.13
2022-10-08T13:00:23.359Z,17.85
2022-10-08T13:03:02.608Z,11.67
2022-10-08T13:05:34.617Z,7.18
2022-10-08T13:08:34.021Z,7.28
2022-10-08T13:11:05.215Z,7.40
2022-10-08T13:13:45.655Z,6.63
2022-10-08T13:16:15.569Z,10.00
2022-10-08T13:18:46.083Z,7.43
2022-10-08T13:21:36.132Z,7.70
2022-10-08T13:24:26.138Z,5.57
2022-10-08T13:26:55.754Z,11.35
2022-10-08T13:29:33.163Z,5.85
2022-10-08T13:32:05.097Z,5.75
2022-10-08T13:34:36.435Z,14.85
2022-10-08T13:37:09.999Z,9.70
2022-10-08T13:42:09.688Z,6.90
2022-10-08T13:44:41.374Z,8.98
2022-10-08T13:47:13.983Z,6.63
2022-10-08T13:49:42.698Z,7.50
2022-10-08T13:52:16.296Z,6.20
2022-10-08T13:57:13.769Z,8.60
2022-10-08T13:59:42.044Z,5.50
2022-10-08T14:02:12.848Z,6.82
2022-10-08T14:04:41.255Z,6.80
2022-10-08T14:07:20.394Z,7.40
2022-10-08T14:09:48.624Z,5.38
2022-10-08T14:12:17.869Z,8.73
2022-10-08T14:14:46.686Z,5.63
2022-10-08T14:17:14.938Z,6.18
2022-10-08T14:19:43.123Z,7.07
2022-10-08T14:22:13.099Z,7.78
2022-10-08T14:24:43.041Z,4.63
2022-10-08T14:27:11.348Z,7.03
2022-10-08T14:29:39.998Z,7.88
2022-10-08T14:32:09.407Z,8.57
2022-10-08T14:34:38.098Z,7.10
2022-10-08T14:37:07.178Z,10.05
2022-10-08T14:39:35.479Z,5.82
2022-10-08T14:42:05.281Z,7.93
2022-10-08T14:44:33.682Z,7.78
2022-10-08T14:47:01.883Z,5.63
2022-10-08T14:49:30.006Z,6.78
2022-10-08T14:51:58.616Z,6.65
2022-10-08T14:54:28.088Z,8.20
2022-10-08T14:56:56.281Z,8.38
2022-10-08T14:59:26.217Z,6.63
2022-10-08T15:01:54.960Z,7.38
2022-10-08T15:04:23.147Z,4.85
2022-10-08T15:06:51.663Z,6.70
2022-10-08T15:09:20.788Z,8.25
2022-10-08T15:11:49.179Z,6.07
2022-10-08T15:14:17.926Z,9.48
2022-10-08T15:16:47.532Z,8.43
2022-10-08T15:19:18.715Z,10.38
2022-10-08T15:21:51.124Z,8.48
2022-10-08T15:24:19.321Z,5.45
2022-10-08T15:26:47.588Z,11.63
2022-10-08T15:29:16.077Z,7.38
2022-10-08T15:31:44.427Z,7.97
2022-10-08T15:34:18.378Z,7.75
2022-10-08T15:36:47.073Z,7.53
2022-10-08T15:39:17.389Z,9.23
2022-10-08T15:41:48.302Z,9.32
2022-10-08T15:44:19.188Z,10.30
2022-10-08T15:46:47.667Z,5.72
2022-10-08T15:49:17.685Z,5.95
2022-10-08T15:51:45.802Z,7.65
2022-10-08T15:54:14.008Z,7.43
2022-10-08T15:56:42.308Z,8.35
2022-10-08T15:59:10.488Z,9.73
2022-10-08T16:01:38.879Z,4.55
2022-10-08T16:04:08.065Z,7.95
2022-10-08T16:06:37.590Z,9.00
2022-10-08T16:09:06.362Z,6.28
2022-10-08T16:11:35.775Z,9.82
2022-10-08T16:14:06.321Z,6.50
2022-10-08T16:16:35.227Z,7.78
2022-10-08T16:19:05.303Z,7.90
2022-10-08T16:21:34.729Z,9.35
2022-10-08T16:24:05.376Z,9.90
2022-10-08T16:26:35.592Z,7.43
2022-10-08T16:29:06.033Z,8.07
2022-10-08T16:31:36.221Z,6.90
2022-10-08T16:34:07.024Z,9.32
2022-10-08T16:36:37.641Z,9.65
2022-10-08T16:39:08.716Z,8.18
2022-10-08T16:41:38.545Z,9.60
2022-10-08T16:44:12.305Z,9.95
2022-10-08T16:46:45.152Z,7.95
2022-10-08T16:49:22.718Z,5.70
2022-10-08T16:51:53.088Z,7.47
2022-10-08T16:54:22.871Z,11.93
2022-10-08T16:56:51.390Z,8.27
2022-10-08T16:59:21.429Z,10.63
2022-10-08T17:01:51.823Z,8.45
2022-10-08T17:04:21.733Z,10.07
2022-10-08T17:06:50.340Z,8.65
2022-10-08T17:09:18.593Z,6.30
2022-10-08T17:11:48.685Z,8.45
2022-10-08T17:14:17.056Z,8.48
2022-10-08T17:16:45.832Z,8.10
2022-10-08T17:19:14.289Z,9.00
2022-10-08T17:21:43.208Z,8.57
2022-10-08T17:24:13.190Z,7.15
2022-10-08T17:26:42.117Z,7.70
2022-10-08T17:29:13.415Z,7.45
2022-10-08T17:31:42.225Z,9.50
2022-10-08T17:34:11.932Z,9.60
2022-10-08T17:36:44.258Z,8.48
2022-10-08T17:39:15.985Z,13.57
2022-10-08T17:41:44.963Z,11.10
2022-10-08T17:44:17.687Z,14.80
2022-10-08T17:46:47.796Z,11.45
2022-10-08T17:49:17.578Z,12.85
2022-10-08T17:51:46.567Z,15.00
2022-10-08T17:54:16.702Z,10.43
2022-10-08T17:56:44.957Z,13.68
2022-10-08T17:59:16.423Z,15.75
2022-10-08T18:01:45.843Z,11.18
2022-10-08T18:04:16.263Z,10.57
2022-10-08T18:06:46.240Z,11.70
2022-10-08T18:09:16.381Z,12.50
2022-10-08T18:11:46.394Z,10.52
2022-10-08T18:14:17.454Z,13.15
2022-10-08T18:16:48.387Z,9.63
2022-10-08T18:19:17.839Z,11.90
2022-10-08T18:21:46.685Z,11.32
2022-10-08T18:24:15.034Z,11.85
2022-10-08T18:26:43.528Z,14.75
2022-10-08T18:29:14.806Z,12.82
2022-10-08T18:31:46.641Z,12.52
2022-10-08T18:34:17.103Z,10.98
2022-10-08T18:36:46.220Z,11.93
2022-10-08T18:39:16.086Z,11.05
2022-10-08T18:41:46.768Z,12.35
2022-10-08T18:44:17.705Z,9.50
2022-10-08T18:46:47.883Z,14.38
2022-10-08T18:49:17.932Z,8.70
2022-10-08T18:51:46.748Z,8.52
2022-10-08T18:54:15.190Z,11.27
2022-10-08T18:56:43.876Z,12.68
2022-10-08T18:59:14.822Z,11.60
2022-10-08T19:01:45.527Z,10.38
2022-10-08T19:04:17.137Z,14.15
2022-10-08T19:06:47.079Z,12.88
2022-10-08T19:09:16.217Z,15.45
2022-10-08T19:11:46.404Z,12.52
2022-10-08T19:14:16.621Z,14.35
2022-10-08T19:16:45.569Z,10.35
2022-10-08T19:19:18.183Z,10.20
2022-10-08T19:21:47.122Z,10.65
2022-10-08T19:24:17.584Z,11.95
2022-10-08T19:26:47.226Z,14.10
2022-10-08T19:29:17.543Z,12.07
2022-10-08T19:31:47.660Z,12.13
2022-10-08T19:34:19.691Z,12.80
2022-10-08T19:36:48.417Z,14.10
2022-10-08T19:39:19.804Z,14.25
2022-10-08T19:41:48.450Z,10.75
2022-10-08T19:44:17.721Z,11.10
2022-10-08T19:46:46.148Z,11.48
2022-10-08T19:49:15.040Z,10.60
2022-10-08T19:51:45.110Z,10.55
2022-10-08T19:54:14.156Z,13.77
2022-10-08T19:56:42.738Z,11.60
2022-10-08T19:59:12.605Z,17.15
2022-10-08T20:01:41.860Z,15.27
2022-10-08T20:04:11.178Z,13.40
2022-10-08T20:06:41.839Z,12.38
2022-10-08T20:09:14.253Z,14.55
2022-10-08T20:11:43.430Z,16.98
2022-10-08T20:14:12.524Z,14.95
2022-10-08T20:16:42.598Z,13.90
2022-10-08T20:19:16.890Z,12.57
2022-10-08T20:21:45.399Z,14.95
2022-10-08T20:24:15.032Z,10.50
2022-10-08T20:26:44.232Z,18.02
2022-10-08T20:29:14.206Z,11.85
2022-10-08T20:31:43.527Z,15.32
2022-10-08T20:34:14.106Z,13.68
2022-10-08T20:36:42.829Z,15.32
2022-10-08T20:39:13.048Z,17.77
2022-10-08T20:41:42.861Z,12.32
2022-10-08T20:44:11.357Z,15.23
2022-10-08T20:46:40.260Z,13.90
2022-10-08T20:49:08.790Z,14.65
2022-10-08T20:51:40.701Z,16.23
2022-10-08T20:54:10.725Z,11.85
2022-10-08T20:56:40.667Z,15.88
2022-10-08T20:59:14.172Z,16.38
2022-10-08T21:01:42.745Z,18.77
2022-10-08T21:04:11.176Z,20.65
2022-10-08T21:06:41.440Z,17.63
2022-10-08T21:09:09.915Z,21.77
2022-10-08T21:11:38.940Z,19.45
2022-10-08T21:14:10.391Z,29.38
2022-10-08T21:16:40.834Z,28.08
2022-10-08T21:19:13.198Z,21.23
2022-10-08T21:21:42.165Z,21.80
2022-10-08T21:24:10.560Z,18.92
2022-10-08T21:26:41.360Z,19.00
2022-10-08T21:29:13.503Z,22.70
2022-10-08T21:31:43.336Z,18.88
2022-10-08T21:34:13.009Z,16.48
2022-10-08T21:36:42.428Z,16.77
2022-10-08T21:39:15.463Z,18.10
2022-10-08T21:41:43.605Z,14.68
2022-10-08T21:44:14.291Z,15.75
2022-10-08T21:46:43.945Z,20.77
2022-10-08T21:49:13.889Z,14.48
2022-10-08T21:51:43.007Z,12.77
2022-10-08T21:54:12.043Z,12.75
2022-10-08T21:56:41.773Z,16.52
2022-10-08T21:59:14.448Z,15.20
2022-10-08T22:01:44.711Z,15.85
2022-10-08T22:04:14.679Z,17.40
2022-10-08T22:06:44.924Z,14.05
2022-10-08T22:09:16.031Z,17.90
2022-10-08T22:11:44.281Z,14.85
2022-10-08T22:14:13.958Z,22.77
2022-10-08T22:16:42.679Z,17.17
2022-10-08T22:19:11.597Z,16.90
2022-10-08T22:21:40.149Z,14.93
2022-10-08T22:24:09.136Z,16.42
2022-10-08T22:26:39.624Z,14.90
2022-10-08T22:29:08.795Z,15.68
2022-10-08T22:31:39.047Z,15.20
2022-10-08T22:34:07.399Z,15.30
2022-10-08T22:36:39.677Z,17.52
2022-10-08T22:39:08.234Z,15.27
2022-10-08T22:41:36.776Z,16.55
2022-10-08T22:44:05.084Z,20.38
2022-10-08T22:46:38.611Z,20.30
2022-10-08T22:49:09.052Z,17.52
2022-10-08T22:51:37.986Z,18.85
2022-10-08T22:54:06.475Z,17.25
2022-10-08T22:56:34.892Z,19.45
2022-10-08T22:59:03.242Z,19.92
2022-10-08T23:01:31.998Z,17.80
2022-10-08T23:04:01.505Z,17.10
2022-10-08T23:06:31.505Z,17.80
2022-10-08T23:09:00.753Z,21.48
2022-10-08T23:11:31.761Z,16.45
2022-10-08T23:14:01.152Z,17.58
2022-10-08T23:16:31.189Z,13.95
2022-10-08T23:19:02.384Z,16.85
2022-10-08T23:21:30.792Z,17.85
2022-10-08T23:23:59.456Z,17.75
2022-10-08T23:26:29.002Z,19.20
2022-10-08T23:28:59.437Z,16.27
2022-10-08T23:31:29.509Z,15.07
2022-10-08T23:33:58.810Z,17.63
2022-10-08T23:36:30.401Z,15.07
2022-10-08T23:38:59.227Z,16.42
2022-10-08T23:41:28.372Z,22.00
2022-10-08T23:43:57.910Z,21.08
2022-10-08T23:46:29.261Z,15.90
2022-10-08T23:48:58.484Z,17.40
2022-10-08T23:51:29.511Z,19.00
2022-10-08T23:53:57.642Z,17.67
2022-10-08T23:56:26.069Z,15.77
2022-10-08T23:58:54.446Z,17.30
